sensor_id;sensor_type;location;lat;lon;timestamp;temperature;humidity
3921;DHT22;1975;49.356;6.816;2022-09-13T00:01:56;19.70;95.30
3921;DHT22;1975;49.356;6.816;2022-09-13T00:04:22;19.70;95.30
3921;DHT22;1975;49.356;6.816;2022-09-13T00:06:47;19.70;95.60
3921;DHT22;1975;49.356;6.816;2022-09-13T00:09:13;19.70;95.30
3921;DHT22;1975;49.356;6.816;2022-09-13T00:11:38;19.70;95.30
3921;DHT22;1975;49.356;6.816;2022-09-13T00:14:04;19.70;95.30
3921;DHT22;1975;49.356;6.816;2022-09-13T00:16:29;19.70;95.30
3921;DHT22;1975;49.356;6.816;2022-09-13T00:18:55;19.60;95.30
3921;DHT22;1975;49.356;6.816;2022-09-13T00:21:21;19.60;95.20
3921;DHT22;1975;49.356;6.816;2022-09-13T00:23:48;19.60;95.20
3921;DHT22;1975;49.356;6.816;2022-09-13T00:26:15;19.60;95.20
3921;DHT22;1975;49.356;6.816;2022-09-13T00:28:40;19.60;95.20
3921;DHT22;1975;49.356;6.816;2022-09-13T00:31:07;19.60;95.20
3921;DHT22;1975;49.356;6.816;2022-09-13T00:33:33;19.60;95.20
3921;DHT22;1975;49.356;6.816;2022-09-13T00:36:02;19.60;95.20
3921;DHT22;1975;49.356;6.816;2022-09-13T00:38:28;19.60;95.20
3921;DHT22;1975;49.356;6.816;2022-09-13T00:40:53;19.50;95.10
3921;DHT22;1975;49.356;6.816;2022-09-13T00:43:20;19.50;95.20
3921;DHT22;1975;49.356;6.816;2022-09-13T00:45:46;19.50;95.10
3921;DHT22;1975;49.356;6.816;2022-09-13T00:48:15;19.50;95.20
3921;DHT22;1975;49.356;6.816;2022-09-13T00:50:43;19.50;95.20
3921;DHT22;1975;49.356;6.816;2022-09-13T00:53:10;19.50;95.10
3921;DHT22;1975;49.356;6.816;2022-09-13T00:58:16;19.50;95.20
3921;DHT22;1975;49.356;6.816;2022-09-13T01:00:43;19.40;95.10
3921;DHT22;1975;49.356;6.816;2022-09-13T01:03:09;19.40;95.10
3921;DHT22;1975;49.356;6.816;2022-09-13T01:05:40;19.40;95.00
3921;DHT22;1975;49.356;6.816;2022-09-13T01:08:07;19.40;95.10
3921;DHT22;1975;49.356;6.816;2022-09-13T01:10:38;19.40;95.00
3921;DHT22;1975;49.356;6.816;2022-09-13T01:13:10;19.40;95.00
3921;DHT22;1975;49.356;6.816;2022-09-13T01:15:39;19.40;95.00
3921;DHT22;1975;49.356;6.816;2022-09-13T01:18:05;19.40;95.10
3921;DHT22;1975;49.356;6.816;2022-09-13T01:31:42;19.30;95.00
3921;DHT22;1975;49.356;6.816;2022-09-13T01:36:50;19.30;95.00
3921;DHT22;1975;49.356;6.816;2022-09-13T01:39:22;19.30;95.00
3921;DHT22;1975;49.356;6.816;2022-09-13T01:47:25;19.20;95.00
3921;DHT22;1975;49.356;6.816;2022-09-13T02:02:22;19.20;95.00
3921;DHT22;1975;49.356;6.816;2022-09-13T02:04:52;19.20;95.00
3921;DHT22;1975;49.356;6.816;2022-09-13T02:07:28;19.20;95.00
3921;DHT22;1975;49.356;6.816;2022-09-13T02:09:58;19.10;95.00
3921;DHT22;1975;49.356;6.816;2022-09-13T02:12:26;19.10;95.00
3921;DHT22;1975;49.356;6.816;2022-09-13T02:15:13;19.10;95.00
3921;DHT22;1975;49.356;6.816;2022-09-13T02:17:48;19.10;95.00
3921;DHT22;1975;49.356;6.816;2022-09-13T02:20:16;19.10;95.00
3921;DHT22;1975;49.356;6.816;2022-09-13T02:22:46;19.10;95.00
3921;DHT22;1975;49.356;6.816;2022-09-13T02:25:14;19.10;95.10
3921;DHT22;1975;49.356;6.816;2022-09-13T02:27:40;19.00;95.10
3921;DHT22;1975;49.356;6.816;2022-09-13T02:30:09;19.10;95.10
3921;DHT22;1975;49.356;6.816;2022-09-13T02:32:37;19.00;95.00
3921;DHT22;1975;49.356;6.816;2022-09-13T02:35:07;19.00;95.00
3921;DHT22;1975;49.356;6.816;2022-09-13T02:37:35;19.00;95.00
3921;DHT22;1975;49.356;6.816;2022-09-13T02:40:03;19.00;95.00
3921;DHT22;1975;49.356;6.816;2022-09-13T02:42:34;19.00;95.00
3921;DHT22;1975;49.356;6.816;2022-09-13T02:45:00;19.00;95.00
3921;DHT22;1975;49.356;6.816;2022-09-13T02:52:31;19.00;95.00
3921;DHT22;1975;49.356;6.816;2022-09-13T02:57:37;18.90;95.00
3921;DHT22;1975;49.356;6.816;2022-09-13T03:00:03;18.90;95.00
3921;DHT22;1975;49.356;6.816;2022-09-13T03:02:32;18.90;95.10
3921;DHT22;1975;49.356;6.816;2022-09-13T03:04:58;18.90;95.00
3921;DHT22;1975;49.356;6.816;2022-09-13T03:07:24;18.90;95.00
3921;DHT22;1975;49.356;6.816;2022-09-13T03:09:54;18.90;95.10
3921;DHT22;1975;49.356;6.816;2022-09-13T03:20:12;18.90;95.10
3921;DHT22;1975;49.356;6.816;2022-09-13T03:27:48;18.80;95.00
3921;DHT22;1975;49.356;6.816;2022-09-13T03:30:16;18.80;95.10
3921;DHT22;1975;49.356;6.816;2022-09-13T03:32:47;18.80;95.00
3921;DHT22;1975;49.356;6.816;2022-09-13T03:35:20;18.80;95.10
3921;DHT22;1975;49.356;6.816;2022-09-13T03:40:45;18.80;95.40
3921;DHT22;1975;49.356;6.816;2022-09-13T03:43:15;18.80;95.10
3921;DHT22;1975;49.356;6.816;2022-09-13T03:45:47;18.80;95.10
3921;DHT22;1975;49.356;6.816;2022-09-13T03:48:13;18.70;95.00
3921;DHT22;1975;49.356;6.816;2022-09-13T03:50:39;18.70;95.00
3921;DHT22;1975;49.356;6.816;2022-09-13T03:53:06;18.70;95.10
3921;DHT22;1975;49.356;6.816;2022-09-13T03:55:33;18.70;95.10
3921;DHT22;1975;49.356;6.816;2022-09-13T03:57:59;18.70;95.10
3921;DHT22;1975;49.356;6.816;2022-09-13T04:00:25;18.70;95.20
3921;DHT22;1975;49.356;6.816;2022-09-13T04:02:50;18.70;95.20
3921;DHT22;1975;49.356;6.816;2022-09-13T04:05:16;18.70;95.20
3921;DHT22;1975;49.356;6.816;2022-09-13T04:07:42;18.70;95.20
3921;DHT22;1975;49.356;6.816;2022-09-13T04:10:07;18.70;95.20
3921;DHT22;1975;49.356;6.816;2022-09-13T04:12:33;18.70;95.20
3921;DHT22;1975;49.356;6.816;2022-09-13T04:14:59;18.70;95.20
3921;DHT22;1975;49.356;6.816;2022-09-13T04:17:25;18.60;95.10
3921;DHT22;1975;49.356;6.816;2022-09-13T04:19:50;18.60;95.10
3921;DHT22;1975;49.356;6.816;2022-09-13T04:22:16;18.60;95.10
3921;DHT22;1975;49.356;6.816;2022-09-13T04:24:41;18.60;95.10
3921;DHT22;1975;49.356;6.816;2022-09-13T04:27:08;18.60;95.10
3921;DHT22;1975;49.356;6.816;2022-09-13T04:29:33;18.60;95.10
3921;DHT22;1975;49.356;6.816;2022-09-13T04:31:59;18.60;95.10
3921;DHT22;1975;49.356;6.816;2022-09-13T04:34:24;18.60;95.10
3921;DHT22;1975;49.356;6.816;2022-09-13T04:36:50;18.50;95.10
3921;DHT22;1975;49.356;6.816;2022-09-13T04:39:17;18.60;95.10
3921;DHT22;1975;49.356;6.816;2022-09-13T04:41:43;18.50;95.10
3921;DHT22;1975;49.356;6.816;2022-09-13T04:44:12;18.50;95.00
3921;DHT22;1975;49.356;6.816;2022-09-13T04:46:38;18.50;95.10
3921;DHT22;1975;49.356;6.816;2022-09-13T04:49:03;18.50;95.00
3921;DHT22;1975;49.356;6.816;2022-09-13T04:51:29;18.50;95.10
3921;DHT22;1975;49.356;6.816;2022-09-13T04:53:54;18.50;95.00
3921;DHT22;1975;49.356;6.816;2022-09-13T04:56:21;18.50;95.10
3921;DHT22;1975;49.356;6.816;2022-09-13T04:58:50;18.50;95.10
3921;DHT22;1975;49.356;6.816;2022-09-13T05:01:16;18.50;95.10
3921;DHT22;1975;49.356;6.816;2022-09-13T05:03:41;18.50;95.10
3921;DHT22;1975;49.356;6.816;2022-09-13T05:06:07;18.50;95.10
3921;DHT22;1975;49.356;6.816;2022-09-13T05:08:33;18.50;95.20
3921;DHT22;1975;49.356;6.816;2022-09-13T05:10:59;18.50;95.20
3921;DHT22;1975;49.356;6.816;2022-09-13T05:13:25;18.40;95.30
3921;DHT22;1975;49.356;6.816;2022-09-13T05:15:54;18.40;95.20
3921;DHT22;1975;49.356;6.816;2022-09-13T05:18:20;18.40;95.20
3921;DHT22;1975;49.356;6.816;2022-09-13T05:20:46;18.40;95.20
3921;DHT22;1975;49.356;6.816;2022-09-13T05:23:11;18.40;95.20
3921;DHT22;1975;49.356;6.816;2022-09-13T05:25:36;18.40;95.50
3921;DHT22;1975;49.356;6.816;2022-09-13T05:28:02;18.40;95.20
3921;DHT22;1975;49.356;6.816;2022-09-13T05:30:27;18.40;95.30
3921;DHT22;1975;49.356;6.816;2022-09-13T05:32:53;18.40;95.30
3921;DHT22;1975;49.356;6.816;2022-09-13T05:35:18;18.40;95.40
3921;DHT22;1975;49.356;6.816;2022-09-13T05:37:44;18.40;95.40
3921;DHT22;1975;49.356;6.816;2022-09-13T05:40:09;18.40;95.50
3921;DHT22;1975;49.356;6.816;2022-09-13T05:42:35;18.40;95.50
3921;DHT22;1975;49.356;6.816;2022-09-13T05:45:00;18.40;95.50
3921;DHT22;1975;49.356;6.816;2022-09-13T05:47:26;18.30;95.40
3921;DHT22;1975;49.356;6.816;2022-09-13T05:49:51;18.30;95.40
3921;DHT22;1975;49.356;6.816;2022-09-13T05:52:17;18.30;95.40
3921;DHT22;1975;49.356;6.816;2022-09-13T05:54:42;18.30;95.50
3921;DHT22;1975;49.356;6.816;2022-09-13T05:57:07;18.30;95.50
3921;DHT22;1975;49.356;6.816;2022-09-13T05:59:33;18.30;95.50
3921;DHT22;1975;49.356;6.816;2022-09-13T06:01:58;18.30;95.50
3921;DHT22;1975;49.356;6.816;2022-09-13T06:04:24;18.30;95.50
3921;DHT22;1975;49.356;6.816;2022-09-13T06:06:49;18.30;95.50
3921;DHT22;1975;49.356;6.816;2022-09-13T06:09:15;18.30;95.50
3921;DHT22;1975;49.356;6.816;2022-09-13T06:11:41;18.30;95.50
3921;DHT22;1975;49.356;6.816;2022-09-13T06:14:06;18.30;95.50
3921;DHT22;1975;49.356;6.816;2022-09-13T06:16:32;18.30;95.40
3921;DHT22;1975;49.356;6.816;2022-09-13T06:18:57;18.30;95.50
3921;DHT22;1975;49.356;6.816;2022-09-13T06:21:23;18.30;95.50
3921;DHT22;1975;49.356;6.816;2022-09-13T06:23:50;18.30;95.50
3921;DHT22;1975;49.356;6.816;2022-09-13T06:26:17;18.30;95.50
3921;DHT22;1975;49.356;6.816;2022-09-13T06:28:45;18.30;95.50
3921;DHT22;1975;49.356;6.816;2022-09-13T06:31:13;18.30;95.50
3921;DHT22;1975;49.356;6.816;2022-09-13T06:33:39;18.30;95.50
3921;DHT22;1975;49.356;6.816;2022-09-13T06:36:06;18.20;95.50
3921;DHT22;1975;49.356;6.816;2022-09-13T06:38:32;18.20;95.50
3921;DHT22;1975;49.356;6.816;2022-09-13T06:41:01;18.20;95.50
3921;DHT22;1975;49.356;6.816;2022-09-13T06:43:27;18.20;95.50
3921;DHT22;1975;49.356;6.816;2022-09-13T06:45:52;18.20;95.50
3921;DHT22;1975;49.356;6.816;2022-09-13T06:48:18;18.20;95.60
3921;DHT22;1975;49.356;6.816;2022-09-13T06:50:43;18.20;95.60
3921;DHT22;1975;49.356;6.816;2022-09-13T06:53:10;18.20;95.60
3921;DHT22;1975;49.356;6.816;2022-09-13T06:55:35;18.20;95.70
3921;DHT22;1975;49.356;6.816;2022-09-13T06:58:01;18.20;95.70
3921;DHT22;1975;49.356;6.816;2022-09-13T07:00:26;18.20;95.70
3921;DHT22;1975;49.356;6.816;2022-09-13T07:02:51;18.30;95.80
3921;DHT22;1975;49.356;6.816;2022-09-13T07:05:17;18.20;95.80
3921;DHT22;1975;49.356;6.816;2022-09-13T07:07:45;18.20;95.80
3921;DHT22;1975;49.356;6.816;2022-09-13T07:10:10;18.20;95.80
3921;DHT22;1975;49.356;6.816;2022-09-13T07:12:35;18.20;95.70
3921;DHT22;1975;49.356;6.816;2022-09-13T07:15:01;18.20;95.70
3921;DHT22;1975;49.356;6.816;2022-09-13T07:17:26;18.20;95.80
3921;DHT22;1975;49.356;6.816;2022-09-13T07:19:52;18.20;95.80
3921;DHT22;1975;49.356;6.816;2022-09-13T07:22:17;18.20;95.80
3921;DHT22;1975;49.356;6.816;2022-09-13T07:24:43;18.20;95.80
3921;DHT22;1975;49.356;6.816;2022-09-13T07:27:08;18.20;95.80
3921;DHT22;1975;49.356;6.816;2022-09-13T07:29:34;18.20;95.90
3921;DHT22;1975;49.356;6.816;2022-09-13T07:31:59;18.20;95.90
3921;DHT22;1975;49.356;6.816;2022-09-13T07:34:25;18.20;95.90
3921;DHT22;1975;49.356;6.816;2022-09-13T07:36:51;18.30;96.00
3921;DHT22;1975;49.356;6.816;2022-09-13T07:39:16;18.30;96.00
3921;DHT22;1975;49.356;6.816;2022-09-13T07:41:43;18.30;96.00
3921;DHT22;1975;49.356;6.816;2022-09-13T07:44:09;18.30;96.00
3921;DHT22;1975;49.356;6.816;2022-09-13T07:46:36;18.30;96.10
3921;DHT22;1975;49.356;6.816;2022-09-13T07:49:04;18.30;96.10
3921;DHT22;1975;49.356;6.816;2022-09-13T07:51:33;18.30;96.10
3921;DHT22;1975;49.356;6.816;2022-09-13T07:54:00;18.30;96.10
3921;DHT22;1975;49.356;6.816;2022-09-13T07:56:27;18.30;96.10
3921;DHT22;1975;49.356;6.816;2022-09-13T07:58:53;18.30;96.10
3921;DHT22;1975;49.356;6.816;2022-09-13T08:03:54;18.30;96.10
3921;DHT22;1975;49.356;6.816;2022-09-13T08:06:20;18.30;96.10
3921;DHT22;1975;49.356;6.816;2022-09-13T08:08:46;18.30;96.20
3921;DHT22;1975;49.356;6.816;2022-09-13T08:11:14;18.30;96.20
3921;DHT22;1975;49.356;6.816;2022-09-13T08:13:40;18.30;96.20
3921;DHT22;1975;49.356;6.816;2022-09-13T08:16:06;18.30;96.30
3921;DHT22;1975;49.356;6.816;2022-09-13T08:18:31;18.30;96.30
3921;DHT22;1975;49.356;6.816;2022-09-13T08:20:57;18.40;96.40
3921;DHT22;1975;49.356;6.816;2022-09-13T08:23:23;18.40;96.40
3921;DHT22;1975;49.356;6.816;2022-09-13T08:25:49;18.40;96.40
3921;DHT22;1975;49.356;6.816;2022-09-13T08:28:15;18.40;96.40
3921;DHT22;1975;49.356;6.816;2022-09-13T08:30:41;18.40;96.50
3921;DHT22;1975;49.356;6.816;2022-09-13T08:33:08;18.40;96.50
3921;DHT22;1975;49.356;6.816;2022-09-13T08:35:34;18.40;96.50
3921;DHT22;1975;49.356;6.816;2022-09-13T08:37:59;18.40;96.50
3921;DHT22;1975;49.356;6.816;2022-09-13T08:40:30;18.40;96.60
3921;DHT22;1975;49.356;6.816;2022-09-13T08:43:05;18.40;96.60
3921;DHT22;1975;49.356;6.816;2022-09-13T08:45:36;18.40;96.60
3921;DHT22;1975;49.356;6.816;2022-09-13T08:48:03;18.40;96.60
3921;DHT22;1975;49.356;6.816;2022-09-13T08:50:33;18.40;96.60
3921;DHT22;1975;49.356;6.816;2022-09-13T09:01:02;18.40;96.80
3921;DHT22;1975;49.356;6.816;2022-09-13T09:03:40;18.40;96.80
3921;DHT22;1975;49.356;6.816;2022-09-13T09:06:11;18.40;96.90
3921;DHT22;1975;49.356;6.816;2022-09-13T09:08:38;18.40;96.90
3921;DHT22;1975;49.356;6.816;2022-09-13T09:11:09;18.50;97.10
3921;DHT22;1975;49.356;6.816;2022-09-13T09:13:47;18.50;97.20
3921;DHT22;1975;49.356;6.816;2022-09-13T09:16:26;18.50;97.20
3921;DHT22;1975;49.356;6.816;2022-09-13T09:18:53;18.50;97.30
3921;DHT22;1975;49.356;6.816;2022-09-13T09:21:20;18.50;97.30
3921;DHT22;1975;49.356;6.816;2022-09-13T09:23:48;18.50;97.30
3921;DHT22;1975;49.356;6.816;2022-09-13T09:26:16;18.50;97.40
3921;DHT22;1975;49.356;6.816;2022-09-13T09:28:46;18.50;97.30
3921;DHT22;1975;49.356;6.816;2022-09-13T09:31:13;18.50;97.30
3921;DHT22;1975;49.356;6.816;2022-09-13T09:36:27;18.60;97.40
3921;DHT22;1975;49.356;6.816;2022-09-13T09:38:54;18.60;97.40
3921;DHT22;1975;49.356;6.816;2022-09-13T09:41:27;18.60;97.40
3921;DHT22;1975;49.356;6.816;2022-09-13T09:44:15;18.60;97.50
3921;DHT22;1975;49.356;6.816;2022-09-13T09:46:41;18.60;97.50
3921;DHT22;1975;49.356;6.816;2022-09-13T09:49:16;18.60;97.60
3921;DHT22;1975;49.356;6.816;2022-09-13T09:52:01;18.70;98.00
3921;DHT22;1975;49.356;6.816;2022-09-13T09:54:31;18.70;97.70
3921;DHT22;1975;49.356;6.816;2022-09-13T09:56:57;18.70;97.70
3921;DHT22;1975;49.356;6.816;2022-09-13T09:59:30;18.70;97.80
3921;DHT22;1975;49.356;6.816;2022-09-13T10:01:58;18.70;97.80
3921;DHT22;1975;49.356;6.816;2022-09-13T10:04:24;18.70;97.90
3921;DHT22;1975;49.356;6.816;2022-09-13T10:06:56;18.70;97.90
3921;DHT22;1975;49.356;6.816;2022-09-13T10:09:32;18.80;98.00
3921;DHT22;1975;49.356;6.816;2022-09-13T10:11:58;18.80;98.30
3921;DHT22;1975;49.356;6.816;2022-09-13T10:19:29;18.80;98.20
3921;DHT22;1975;49.356;6.816;2022-09-13T10:22:01;18.90;98.20
3921;DHT22;1975;49.356;6.816;2022-09-13T10:24:27;18.90;98.30
3921;DHT22;1975;49.356;6.816;2022-09-13T10:26:53;18.90;98.30
3921;DHT22;1975;49.356;6.816;2022-09-13T10:29:19;18.90;98.40
3921;DHT22;1975;49.356;6.816;2022-09-13T10:31:46;18.90;98.40
3921;DHT22;1975;49.356;6.816;2022-09-13T10:34:19;19.00;98.50
3921;DHT22;1975;49.356;6.816;2022-09-13T10:39:17;19.00;98.60
3921;DHT22;1975;49.356;6.816;2022-09-13T10:41:55;19.00;98.70
3921;DHT22;1975;49.356;6.816;2022-09-13T10:44:22;19.00;98.70
3921;DHT22;1975;49.356;6.816;2022-09-13T10:46:50;19.10;98.80
3921;DHT22;1975;49.356;6.816;2022-09-13T10:52:00;19.10;98.90
3921;DHT22;1975;49.356;6.816;2022-09-13T10:54:26;19.10;99.00
3921;DHT22;1975;49.356;6.816;2022-09-13T10:56:51;19.10;99.10
3921;DHT22;1975;49.356;6.816;2022-09-13T10:59:24;19.20;99.10
3921;DHT22;1975;49.356;6.816;2022-09-13T11:09:39;19.20;99.30
3921;DHT22;1975;49.356;6.816;2022-09-13T11:12:10;19.30;99.30
3921;DHT22;1975;49.356;6.816;2022-09-13T11:14:49;19.30;99.40
3921;DHT22;1975;49.356;6.816;2022-09-13T11:17:23;19.30;99.50
3921;DHT22;1975;49.356;6.816;2022-09-13T11:19:55;19.30;99.50
3921;DHT22;1975;49.356;6.816;2022-09-13T11:40:27;19.50;99.90
3921;DHT22;1975;49.356;6.816;2022-09-13T11:42:58;19.50;99.90
3921;DHT22;1975;49.356;6.816;2022-09-13T11:45:33;19.50;99.90
3921;DHT22;1975;49.356;6.816;2022-09-13T11:50:53;19.50;99.90
3921;DHT22;1975;49.356;6.816;2022-09-13T11:56:04;19.50;99.90
3921;DHT22;1975;49.356;6.816;2022-09-13T11:58:38;19.60;99.90
3921;DHT22;1975;49.356;6.816;2022-09-13T12:01:07;19.60;99.90
3921;DHT22;1975;49.356;6.816;2022-09-13T12:08:40;19.60;99.90
3921;DHT22;1975;49.356;6.816;2022-09-13T12:11:16;19.60;99.90
3921;DHT22;1975;49.356;6.816;2022-09-13T12:16:11;19.70;99.90
3921;DHT22;1975;49.356;6.816;2022-09-13T12:18:45;19.70;99.90
3921;DHT22;1975;49.356;6.816;2022-09-13T12:21:13;19.70;99.90
3921;DHT22;1975;49.356;6.816;2022-09-13T12:23:50;19.80;99.90
3921;DHT22;1975;49.356;6.816;2022-09-13T12:26:20;19.80;99.90
3921;DHT22;1975;49.356;6.816;2022-09-13T12:28:48;19.80;99.90
3921;DHT22;1975;49.356;6.816;2022-09-13T12:31:17;19.80;99.90
3921;DHT22;1975;49.356;6.816;2022-09-13T12:33:44;19.90;99.90
3921;DHT22;1975;49.356;6.816;2022-09-13T12:41:33;19.90;99.90
3921;DHT22;1975;49.356;6.816;2022-09-13T12:44:12;19.90;99.90
3921;DHT22;1975;49.356;6.816;2022-09-13T12:46:56;19.90;99.90
3921;DHT22;1975;49.356;6.816;2022-09-13T12:54:19;20.00;99.90
3921;DHT22;1975;49.356;6.816;2022-09-13T12:57:06;20.00;99.90
3921;DHT22;1975;49.356;6.816;2022-09-13T13:02:21;20.10;99.90
3921;DHT22;1975;49.356;6.816;2022-09-13T13:04:49;20.10;99.90
3921;DHT22;1975;49.356;6.816;2022-09-13T13:07:19;20.10;99.90
3921;DHT22;1975;49.356;6.816;2022-09-13T13:09:49;20.20;99.90
3921;DHT22;1975;49.356;6.816;2022-09-13T13:12:36;20.20;99.90
3921;DHT22;1975;49.356;6.816;2022-09-13T13:17:54;20.20;99.90
3921;DHT22;1975;49.356;6.816;2022-09-13T13:20:39;20.20;99.90
3921;DHT22;1975;49.356;6.816;2022-09-13T13:23:24;20.20;99.90
3921;DHT22;1975;49.356;6.816;2022-09-13T13:33:50;20.30;99.90
3921;DHT22;1975;49.356;6.816;2022-09-13T13:37:00;20.30;99.90
3921;DHT22;1975;49.356;6.816;2022-09-13T13:41:53;20.30;99.90
3921;DHT22;1975;49.356;6.816;2022-09-13T13:46:54;20.40;99.90
3921;DHT22;1975;49.356;6.816;2022-09-13T13:54:56;20.50;99.90
3921;DHT22;1975;49.356;6.816;2022-09-13T13:57:22;20.50;99.90
3921;DHT22;1975;49.356;6.816;2022-09-13T13:59:52;20.50;99.90
3921;DHT22;1975;49.356;6.816;2022-09-13T14:02:20;20.60;99.90
3921;DHT22;1975;49.356;6.816;2022-09-13T14:10:35;20.60;99.90
3921;DHT22;1975;49.356;6.816;2022-09-13T14:13:15;20.70;99.80
3921;DHT22;1975;49.356;6.816;2022-09-13T14:18:36;20.70;99.50
3921;DHT22;1975;49.356;6.816;2022-09-13T14:21:17;20.70;99.10
3921;DHT22;1975;49.356;6.816;2022-09-13T14:23:43;20.80;99.00
3921;DHT22;1975;49.356;6.816;2022-09-13T14:26:08;20.80;99.00
3921;DHT22;1975;49.356;6.816;2022-09-13T14:28:35;20.80;99.00
3921;DHT22;1975;49.356;6.816;2022-09-13T14:31:01;20.80;98.90
3921;DHT22;1975;49.356;6.816;2022-09-13T14:33:31;20.80;98.90
3921;DHT22;1975;49.356;6.816;2022-09-13T14:36:03;20.90;99.00
3921;DHT22;1975;49.356;6.816;2022-09-13T14:38:31;20.90;99.00
3921;DHT22;1975;49.356;6.816;2022-09-13T14:41:10;20.90;99.10
3921;DHT22;1975;49.356;6.816;2022-09-13T14:43:36;20.90;99.00
3921;DHT22;1975;49.356;6.816;2022-09-13T14:46:03;20.90;98.90
3921;DHT22;1975;49.356;6.816;2022-09-13T14:48:31;20.90;98.90
3921;DHT22;1975;49.356;6.816;2022-09-13T14:51:01;20.90;98.90
3921;DHT22;1975;49.356;6.816;2022-09-13T14:53:29;20.90;98.90
3921;DHT22;1975;49.356;6.816;2022-09-13T14:56:01;20.90;98.90
3921;DHT22;1975;49.356;6.816;2022-09-13T14:58:29;21.10;98.70
3921;DHT22;1975;49.356;6.816;2022-09-13T15:00:59;21.70;98.00
3921;DHT22;1975;49.356;6.816;2022-09-13T15:03:26;22.10;97.10
3921;DHT22;1975;49.356;6.816;2022-09-13T15:05:52;22.30;96.60
3921;DHT22;1975;49.356;6.816;2022-09-13T15:08:25;22.40;96.70
3921;DHT22;1975;49.356;6.816;2022-09-13T15:10:50;22.50;96.30
3921;DHT22;1975;49.356;6.816;2022-09-13T15:13:16;22.50;96.40
3921;DHT22;1975;49.356;6.816;2022-09-13T15:15:42;22.50;96.30
3921;DHT22;1975;49.356;6.816;2022-09-13T15:20:57;22.60;96.00
3921;DHT22;1975;49.356;6.816;2022-09-13T15:23:33;22.60;95.80
3921;DHT22;1975;49.356;6.816;2022-09-13T15:28:44;22.70;96.20
3921;DHT22;1975;49.356;6.816;2022-09-13T15:31:18;22.70;96.10
3921;DHT22;1975;49.356;6.816;2022-09-13T15:33:44;22.70;95.90
3921;DHT22;1975;49.356;6.816;2022-09-13T15:36:13;22.80;95.90
3921;DHT22;1975;49.356;6.816;2022-09-13T15:41:27;22.80;96.90
3921;DHT22;1975;49.356;6.816;2022-09-13T15:43:52;22.90;96.70
3921;DHT22;1975;49.356;6.816;2022-09-13T15:46:18;22.80;97.00
3921;DHT22;1975;49.356;6.816;2022-09-13T15:48:50;22.90;97.10
3921;DHT22;1975;49.356;6.816;2022-09-13T15:51:16;22.90;96.90
3921;DHT22;1975;49.356;6.816;2022-09-13T15:53:43;22.90;97.90
3921;DHT22;1975;49.356;6.816;2022-09-13T15:56:12;23.00;99.90
3921;DHT22;1975;49.356;6.816;2022-09-13T15:58:38;23.10;99.90
3921;DHT22;1975;49.356;6.816;2022-09-13T16:01:03;23.00;99.90
3921;DHT22;1975;49.356;6.816;2022-09-13T16:03:29;23.10;99.90
3921;DHT22;1975;49.356;6.816;2022-09-13T16:05:55;23.10;99.90
3921;DHT22;1975;49.356;6.816;2022-09-13T16:08:20;23.10;99.90
3921;DHT22;1975;49.356;6.816;2022-09-13T16:10:46;23.10;99.90
3921;DHT22;1975;49.356;6.816;2022-09-13T16:13:11;23.10;99.90
3921;DHT22;1975;49.356;6.816;2022-09-13T16:15:37;23.10;99.90
3921;DHT22;1975;49.356;6.816;2022-09-13T16:18:02;23.00;99.90
3921;DHT22;1975;49.356;6.816;2022-09-13T16:20:28;23.00;99.90
3921;DHT22;1975;49.356;6.816;2022-09-13T16:22:53;23.00;99.90
3921;DHT22;1975;49.356;6.816;2022-09-13T16:25:19;23.00;99.90
3921;DHT22;1975;49.356;6.816;2022-09-13T16:27:45;23.00;99.90
3921;DHT22;1975;49.356;6.816;2022-09-13T16:30:11;22.90;99.90
3921;DHT22;1975;49.356;6.816;2022-09-13T16:32:37;22.90;99.90
3921;DHT22;1975;49.356;6.816;2022-09-13T16:35:02;22.90;99.90
3921;DHT22;1975;49.356;6.816;2022-09-13T16:37:28;22.80;99.90
3921;DHT22;1975;49.356;6.816;2022-09-13T16:39:56;22.80;99.90
3921;DHT22;1975;49.356;6.816;2022-09-13T16:42:22;22.80;99.90
3921;DHT22;1975;49.356;6.816;2022-09-13T16:44:48;22.80;99.90
3921;DHT22;1975;49.356;6.816;2022-09-13T16:47:14;22.70;99.90
3921;DHT22;1975;49.356;6.816;2022-09-13T16:49:39;22.70;99.90
3921;DHT22;1975;49.356;6.816;2022-09-13T16:52:05;22.80;99.90
3921;DHT22;1975;49.356;6.816;2022-09-13T16:54:30;22.90;99.90
3921;DHT22;1975;49.356;6.816;2022-09-13T16:56:58;22.90;99.90
3921;DHT22;1975;49.356;6.816;2022-09-13T16:59:24;23.00;99.90
3921;DHT22;1975;49.356;6.816;2022-09-13T17:01:50;23.00;99.90
3921;DHT22;1975;49.356;6.816;2022-09-13T17:04:15;22.90;99.90
3921;DHT22;1975;49.356;6.816;2022-09-13T17:06:42;22.90;99.90
3921;DHT22;1975;49.356;6.816;2022-09-13T17:09:07;22.90;99.90
3921;DHT22;1975;49.356;6.816;2022-09-13T17:11:37;22.80;99.90
3921;DHT22;1975;49.356;6.816;2022-09-13T17:14:04;22.90;99.90
3921;DHT22;1975;49.356;6.816;2022-09-13T17:16:31;22.80;99.90
3921;DHT22;1975;49.356;6.816;2022-09-13T17:18:59;22.70;99.90
3921;DHT22;1975;49.356;6.816;2022-09-13T17:21:25;22.70;99.90
3921;DHT22;1975;49.356;6.816;2022-09-13T17:23:51;22.70;99.90
3921;DHT22;1975;49.356;6.816;2022-09-13T17:26:16;22.60;99.90
3921;DHT22;1975;49.356;6.816;2022-09-13T17:28:42;22.60;99.90
3921;DHT22;1975;49.356;6.816;2022-09-13T17:31:07;22.50;99.90
3921;DHT22;1975;49.356;6.816;2022-09-13T17:33:33;22.50;99.90
3921;DHT22;1975;49.356;6.816;2022-09-13T17:36:06;22.50;99.90
3921;DHT22;1975;49.356;6.816;2022-09-13T17:38:33;22.50;99.90
3921;DHT22;1975;49.356;6.816;2022-09-13T17:41:06;22.50;99.90
3921;DHT22;1975;49.356;6.816;2022-09-13T17:43:33;22.50;99.90
3921;DHT22;1975;49.356;6.816;2022-09-13T17:46:09;22.50;99.90
3921;DHT22;1975;49.356;6.816;2022-09-13T17:48:36;22.40;99.90
3921;DHT22;1975;49.356;6.816;2022-09-13T17:51:05;22.40;99.90
3921;DHT22;1975;49.356;6.816;2022-09-13T17:53:35;22.40;99.90
3921;DHT22;1975;49.356;6.816;2022-09-13T17:56:01;22.40;99.90
3921;DHT22;1975;49.356;6.816;2022-09-13T17:58:27;22.40;99.90
3921;DHT22;1975;49.356;6.816;2022-09-13T18:01:26;22.40;99.90
3921;DHT22;1975;49.356;6.816;2022-09-13T18:03:45;22.40;99.90
3921;DHT22;1975;49.356;6.816;2022-09-13T18:06:10;22.40;99.90
3921;DHT22;1975;49.356;6.816;2022-09-13T18:08:37;22.30;99.90
3921;DHT22;1975;49.356;6.816;2022-09-13T18:11:07;22.30;99.90
3921;DHT22;1975;49.356;6.816;2022-09-13T18:13:33;22.30;99.90
3921;DHT22;1975;49.356;6.816;2022-09-13T18:16:03;22.30;99.90
3921;DHT22;1975;49.356;6.816;2022-09-13T18:18:29;22.30;99.90
3921;DHT22;1975;49.356;6.816;2022-09-13T18:20:55;22.30;99.90
3921;DHT22;1975;49.356;6.816;2022-09-13T18:23:20;22.30;99.90
3921;DHT22;1975;49.356;6.816;2022-09-13T18:25:59;22.20;99.90
3921;DHT22;1975;49.356;6.816;2022-09-13T18:28:25;22.30;99.90
3921;DHT22;1975;49.356;6.816;2022-09-13T18:30:54;22.20;99.90
3921;DHT22;1975;49.356;6.816;2022-09-13T18:33:20;22.20;99.90
3921;DHT22;1975;49.356;6.816;2022-09-13T18:36:06;22.20;99.90
3921;DHT22;1975;49.356;6.816;2022-09-13T18:38:33;22.20;99.90
3921;DHT22;1975;49.356;6.816;2022-09-13T18:40:59;22.20;99.90
3921;DHT22;1975;49.356;6.816;2022-09-13T18:43:25;22.20;99.90
3921;DHT22;1975;49.356;6.816;2022-09-13T18:45:57;22.20;99.90
3921;DHT22;1975;49.356;6.816;2022-09-13T18:48:23;22.20;99.90
3921;DHT22;1975;49.356;6.816;2022-09-13T18:50:49;22.10;99.90
3921;DHT22;1975;49.356;6.816;2022-09-13T18:53:15;22.20;99.90
3921;DHT22;1975;49.356;6.816;2022-09-13T18:55:40;22.10;99.90
3921;DHT22;1975;49.356;6.816;2022-09-13T18:58:06;22.10;99.90
3921;DHT22;1975;49.356;6.816;2022-09-13T19:00:31;22.10;99.90